createdAt,value
2022-09-07T00:01:19.724Z,0
2022-09-07T00:03:27.122Z,0
2022-09-07T00:05:34.365Z,0
2022-09-07T00:06:37.164Z,0
2022-09-07T00:08:43.111Z,0
2022-09-07T00:10:49.273Z,0
2022-09-07T00:12:55.582Z,0
2022-09-07T00:13:58.741Z,0
2022-09-07T00:16:04.584Z,0
2022-09-07T00:18:10.473Z,0
2022-09-07T00:20:16.102Z,0
2022-09-07T00:21:18.546Z,0
2022-09-07T00:23:23.926Z,0
2022-09-07T00:25:33.801Z,0
2022-09-07T00:27:40.050Z,0
2022-09-07T00:28:42.762Z,0
2022-09-07T00:30:49.155Z,0
2022-09-07T00:32:55.646Z,0
2022-09-07T00:33:58.356Z,0
2022-09-07T00:35:01.190Z,0
2022-09-07T00:36:04.327Z,0
2022-09-07T00:38:09.953Z,0
2022-09-07T00:40:16.161Z,0
2022-09-07T00:41:19.858Z,0
2022-09-07T00:43:26.704Z,0
2022-09-07T00:44:29.774Z,0
2022-09-07T00:46:36.532Z,0
2022-09-07T00:48:42.335Z,0
2022-09-07T00:49:45.216Z,0
2022-09-07T00:51:51.802Z,0
2022-09-07T00:53:57.695Z,0
2022-09-07T00:56:03.255Z,0
2022-09-07T00:57:05.842Z,0
2022-09-07T00:59:11.522Z,0
2022-09-07T01:01:18.184Z,0
2022-09-07T01:03:25.228Z,0
2022-09-07T01:04:28.397Z,0
2022-09-07T01:06:33.784Z,0
2022-09-07T01:08:39.401Z,0
2022-09-07T01:09:42.819Z,0
2022-09-07T01:10:45.822Z,0
2022-09-07T01:11:48.823Z,0
2022-09-07T01:13:53.292Z,0
2022-09-07T01:14:56.086Z,0
2022-09-07T01:15:59.626Z,0
2022-09-07T01:17:02.390Z,0
2022-09-07T01:18:05.819Z,0
2022-09-07T01:20:12.231Z,0
2022-09-07T01:22:18.452Z,0
2022-09-07T01:23:21.169Z,0
2022-09-07T01:25:26.834Z,0
2022-09-07T01:26:30.183Z,0
2022-09-07T01:28:35.379Z,0
2022-09-07T01:29:38.465Z,0
2022-09-07T01:31:43.664Z,0
2022-09-07T01:33:50.008Z,0
2022-09-07T01:34:53.357Z,0
2022-09-07T01:36:58.730Z,0
2022-09-07T01:38:01.541Z,0
2022-09-07T01:40:07.253Z,0
2022-09-07T01:42:12.688Z,0
2022-09-07T01:43:15.759Z,0
2022-09-07T01:45:21.864Z,0
2022-09-07T01:46:25.113Z,0
2022-09-07T01:48:32.068Z,0
2022-09-07T01:50:37.940Z,0
2022-09-07T01:51:40.453Z,0
2022-09-07T01:53:46.803Z,0
2022-09-07T01:55:52.956Z,0
2022-09-07T01:56:55.472Z,0
2022-09-07T01:59:01.866Z,0
2022-09-07T02:01:07.310Z,0
2022-09-07T02:02:10.718Z,0
2022-09-07T02:04:16.785Z,0
2022-09-07T02:06:22.760Z,0
2022-09-07T02:07:25.847Z,0
2022-09-07T02:09:31.210Z,0
2022-09-07T02:10:34.344Z,0
2022-09-07T02:11:37.209Z,0
2022-09-07T02:12:40.552Z,0
2022-09-07T02:14:54.423Z,0
2022-09-07T02:15:57.948Z,0
2022-09-07T02:18:03.471Z,0
2022-09-07T02:20:09.516Z,0
2022-09-07T02:21:12.667Z,0
2022-09-07T02:22:16.106Z,0
2022-09-07T02:23:19.101Z,0
2022-09-07T02:25:24.956Z,0
2022-09-07T02:26:28.114Z,0
2022-09-07T02:28:34.790Z,0
2022-09-07T02:30:41.386Z,0
2022-09-07T02:32:46.531Z,0
2022-09-07T02:33:49.989Z,0
2022-09-07T02:34:52.786Z,0
2022-09-07T02:35:55.582Z,0
2022-09-07T02:38:02.160Z,0
2022-09-07T02:39:05.859Z,0
2022-09-07T02:41:11.720Z,0
2022-09-07T02:43:18.005Z,0
2022-09-07T02:44:20.587Z,0
2022-09-07T02:45:23.648Z,0
2022-09-07T02:46:27.531Z,0
2022-09-07T02:47:30.700Z,0
2022-09-07T02:49:36.556Z,0
2022-09-07T02:51:42.953Z,0
2022-09-07T02:52:45.278Z,0
2022-09-07T02:54:51.530Z,0
2022-09-07T02:55:54.611Z,0
2022-09-07T02:58:00.268Z,0
2022-09-07T02:59:03.049Z,0
2022-09-07T03:01:10.223Z,0
2022-09-07T03:02:13.619Z,0
2022-09-07T03:04:19.293Z,0
2022-09-07T03:05:22.362Z,0
2022-09-07T03:07:28.784Z,0
2022-09-07T03:09:35.241Z,0
2022-09-07T03:10:38.111Z,0
2022-09-07T03:12:44.426Z,0
2022-09-07T03:14:50.711Z,0
2022-09-07T03:17:00.961Z,0
2022-09-07T03:18:04.683Z,0
2022-09-07T03:20:10.643Z,0
2022-09-07T03:22:16.728Z,0
2022-09-07T03:24:22.834Z,0
2022-09-07T03:25:25.963Z,0
2022-09-07T03:27:31.646Z,0
2022-09-07T03:29:44.038Z,0
2022-09-07T03:31:50.336Z,0
2022-09-07T03:32:53.040Z,0
2022-09-07T03:34:59.954Z,0
2022-09-07T03:37:05.623Z,0
2022-09-07T03:39:12.105Z,0
2022-09-07T03:40:15.964Z,0
2022-09-07T03:42:21.854Z,0
2022-09-07T03:44:27.500Z,0
2022-09-07T03:46:34.535Z,0
2022-09-07T03:47:37.923Z,0
2022-09-07T03:49:44.462Z,0
2022-09-07T03:51:50.125Z,0
2022-09-07T03:53:55.960Z,0
2022-09-07T03:54:58.835Z,0
2022-09-07T03:57:04.693Z,0
2022-09-07T03:59:09.358Z,0
2022-09-07T04:01:16.263Z,0
2022-09-07T04:02:19.760Z,0
2022-09-07T04:04:25.296Z,0
2022-09-07T04:06:31.248Z,0
2022-09-07T04:08:38.031Z,0
2022-09-07T04:09:40.821Z,0
2022-09-07T04:11:47.186Z,0
2022-09-07T04:13:53.758Z,0
2022-09-07T04:15:59.125Z,0
2022-09-07T04:17:03.157Z,0
2022-09-07T04:19:09.407Z,1
2022-09-07T04:21:15.442Z,1
2022-09-07T04:23:21.747Z,1
2022-09-07T04:24:24.530Z,1
2022-09-07T04:26:29.361Z,1
2022-09-07T04:28:35.191Z,1
2022-09-07T04:30:41.916Z,2
2022-09-07T04:31:45.413Z,2
2022-09-07T04:33:51.464Z,3
2022-09-07T04:35:57.524Z,3
2022-09-07T04:38:03.555Z,4
2022-09-07T04:39:06.912Z,4
2022-09-07T04:41:13.851Z,5
2022-09-07T04:43:20.292Z,6
2022-09-07T04:45:26.991Z,6
2022-09-07T04:46:30.559Z,6
2022-09-07T04:47:33.708Z,6
2022-09-07T04:48:36.290Z,7
2022-09-07T04:50:41.967Z,8
2022-09-07T04:51:44.981Z,8
2022-09-07T04:52:48.433Z,9
2022-09-07T04:53:51.506Z,9
2022-09-07T04:55:57.792Z,11
2022-09-07T04:57:00.934Z,11
2022-09-07T04:58:04.357Z,12
2022-09-07T04:59:06.891Z,12
2022-09-07T05:01:13.527Z,13
2022-09-07T05:02:17.081Z,13
2022-09-07T05:03:20.642Z,13
2022-09-07T05:04:24.081Z,13
2022-09-07T05:06:29.868Z,14
2022-09-07T05:07:32.652Z,14
2022-09-07T05:08:35.525Z,14
2022-09-07T05:09:38.324Z,14
2022-09-07T05:11:44.117Z,13
2022-09-07T05:13:50.326Z,13
2022-09-07T05:14:52.842Z,13
2022-09-07T05:16:59.946Z,14
2022-09-07T05:19:06.372Z,14
2022-09-07T05:21:11.491Z,15
2022-09-07T05:22:14.637Z,15
2022-09-07T05:24:21.353Z,15
2022-09-07T05:26:27.522Z,16
2022-09-07T05:28:34.629Z,17
2022-09-07T05:32:16.885Z,19
2022-09-07T05:34:37.287Z,20
2022-09-07T05:36:44.157Z,22
2022-09-07T05:38:50.408Z,24
2022-09-07T05:40:55.954Z,27
2022-09-07T05:41:58.768Z,28
2022-09-07T05:44:50.489Z,30
2022-09-07T05:45:53.997Z,31
2022-09-07T05:46:56.570Z,31
2022-09-07T05:49:02.231Z,33
2022-09-07T05:51:08.610Z,34
2022-09-07T05:53:14.625Z,35
2022-09-07T05:54:17.418Z,36
2022-09-07T05:55:32.500Z,36
2022-09-07T05:56:35.391Z,36
2022-09-07T05:58:41.212Z,37
2022-09-07T06:00:47.027Z,38
2022-09-07T06:01:50.850Z,38
2022-09-07T06:02:55.107Z,39
2022-09-07T06:03:58.284Z,41
2022-09-07T06:06:04.221Z,43
2022-09-07T06:07:24.699Z,45
2022-09-07T06:08:27.956Z,47
2022-09-07T06:09:32.745Z,48
2022-09-07T06:11:45.459Z,51
2022-09-07T06:13:53.446Z,54
2022-09-07T06:14:56.228Z,56
2022-09-07T06:15:59.136Z,57
2022-09-07T06:17:02.066Z,58
2022-09-07T06:19:07.754Z,60
2022-09-07T06:20:10.918Z,61
2022-09-07T06:21:13.991Z,62
2022-09-07T06:22:17.142Z,63
2022-09-07T06:24:22.624Z,68
2022-09-07T06:26:28.369Z,70
2022-09-07T06:27:31.736Z,72
2022-09-07T06:28:35.153Z,73
2022-09-07T06:29:37.934Z,75
2022-09-07T06:32:44.732Z,77
2022-09-07T06:33:48.982Z,78
2022-09-07T06:34:52.326Z,79
2022-09-07T06:36:58.333Z,78
2022-09-07T06:38:01.510Z,78
2022-09-07T06:39:04.294Z,78
2022-09-07T06:40:08.213Z,77
2022-09-07T06:42:11.164Z,77
2022-09-07T06:43:14.463Z,74
2022-09-07T06:45:20.755Z,62
2022-09-07T06:47:08.846Z,57
2022-09-07T06:48:12.712Z,55
2022-09-07T06:50:19.068Z,66
2022-09-07T06:51:21.860Z,75
2022-09-07T06:52:25.981Z,84
2022-09-07T06:53:36.789Z,91
2022-09-07T06:55:00.920Z,97
2022-09-07T06:56:05.201Z,101
2022-09-07T06:58:11.233Z,109
2022-09-07T06:59:14.609Z,112
2022-09-07T07:01:21.512Z,118
2022-09-07T07:03:27.756Z,123
2022-09-07T07:05:33.432Z,126
2022-09-07T07:06:35.929Z,127
2022-09-07T07:08:42.773Z,126
2022-09-07T07:10:48.429Z,124
2022-09-07T07:12:54.238Z,120
2022-09-07T07:13:57.097Z,116
2022-09-07T07:16:01.810Z,109
2022-09-07T07:18:23.147Z,101
2022-09-07T07:20:28.701Z,94
2022-09-07T07:22:47.688Z,92
2022-09-07T07:23:51.276Z,88
2022-09-07T07:25:56.840Z,83
2022-09-07T07:31:14.625Z,78
2022-09-07T07:33:20.815Z,81
2022-09-07T07:35:29.147Z,80
2022-09-07T07:37:35.017Z,82
2022-09-07T07:41:54.613Z,83
2022-09-07T07:43:04.332Z,84
2022-09-07T07:44:07.472Z,85
2022-09-07T07:45:56.179Z,85
2022-09-07T07:48:04.112Z,88
2022-09-07T07:49:06.632Z,87
2022-09-07T07:50:40.427Z,88
2022-09-07T07:53:53.109Z,88
2022-09-07T07:54:57.920Z,89
2022-09-07T07:56:01.223Z,90
2022-09-07T07:58:07.291Z,90
2022-09-07T07:59:17.743Z,89
2022-09-07T08:00:58.626Z,89
2022-09-07T08:03:06.309Z,88
2022-09-07T08:04:09.443Z,87
2022-09-07T08:05:12.813Z,87
2022-09-07T08:06:16.454Z,87
2022-09-07T08:08:22.957Z,88
2022-09-07T08:09:25.751Z,88
2022-09-07T08:11:31.958Z,87
2022-09-07T08:13:37.611Z,85
2022-09-07T08:15:43.657Z,86
2022-09-07T08:16:47.297Z,89
2022-09-07T08:18:52.819Z,98
2022-09-07T08:20:59.350Z,109
2022-09-07T08:23:06.657Z,115
2022-09-07T08:24:09.739Z,118
2022-09-07T08:26:15.060Z,122
2022-09-07T08:28:19.946Z,122
2022-09-07T08:30:25.889Z,126
2022-09-07T08:31:29.449Z,128
2022-09-07T08:33:35.298Z,134
2022-09-07T08:35:41.748Z,143
2022-09-07T08:37:49.110Z,155
2022-09-07T08:38:52.977Z,154
2022-09-07T08:40:59.640Z,153
2022-09-07T08:43:06.294Z,158
2022-09-07T08:44:08.602Z,159
2022-09-07T08:46:15.869Z,156
2022-09-07T08:48:22.327Z,155
2022-09-07T08:49:25.964Z,154
2022-09-07T08:51:32.803Z,151
2022-09-07T08:53:39.009Z,149
2022-09-07T08:54:43.021Z,151
2022-09-07T08:57:23.252Z,153
2022-09-07T08:58:52.271Z,150
2022-09-07T08:59:55.838Z,152
2022-09-07T09:01:36.652Z,158
2022-09-07T09:06:15.030Z,165
2022-09-07T09:07:18.740Z,161
2022-09-07T09:09:25.477Z,142
2022-09-07T09:10:28.651Z,135
2022-09-07T09:12:39.685Z,127
2022-09-07T09:13:42.755Z,124
2022-09-07T09:14:45.892Z,123
2022-09-07T09:15:49.711Z,124
2022-09-07T09:17:56.542Z,118
2022-09-07T09:18:59.655Z,114
2022-09-07T09:21:05.984Z,101
2022-09-07T09:22:09.187Z,95
2022-09-07T09:23:12.916Z,90
2022-09-07T09:24:16.077Z,85
2022-09-07T09:26:23.372Z,84
2022-09-07T09:27:26.823Z,86
2022-09-07T09:28:36.079Z,87
2022-09-07T09:29:39.595Z,88
2022-09-07T09:31:46.001Z,88
2022-09-07T09:33:52.895Z,97
2022-09-07T09:34:55.971Z,102
2022-09-07T09:37:02.213Z,108
2022-09-07T09:39:08.803Z,116
2022-09-07T09:40:11.624Z,117
2022-09-07T09:42:19.197Z,119
2022-09-07T09:44:25.649Z,117
2022-09-07T09:45:30.581Z,117
2022-09-07T09:47:38.101Z,104
2022-09-07T09:49:44.851Z,87
2022-09-07T09:52:51.896Z,81
2022-09-07T09:55:37.626Z,71
2022-09-07T10:00:11.119Z,70
2022-09-07T10:06:00.285Z,65
2022-09-07T10:07:03.491Z,62
2022-09-07T10:08:06.951Z,59
2022-09-07T10:09:09.850Z,57
2022-09-07T10:11:16.610Z,50
2022-09-07T10:12:20.397Z,46
2022-09-07T10:14:26.937Z,40
2022-09-07T10:16:33.841Z,36
2022-09-07T10:18:40.400Z,34
2022-09-07T10:19:43.205Z,33
2022-09-07T10:21:49.535Z,32
2022-09-07T10:23:56.629Z,33
2022-09-07T10:25:00.279Z,33
2022-09-07T10:27:06.900Z,33
2022-09-07T10:29:17.400Z,32
2022-09-07T10:30:20.672Z,31
2022-09-07T10:32:26.494Z,30
2022-09-07T10:33:29.638Z,30
2022-09-07T10:35:35.583Z,30
2022-09-07T10:36:38.290Z,30
2022-09-07T10:37:40.722Z,30
2022-09-07T10:38:44.367Z,29
2022-09-07T10:39:48.362Z,31
2022-09-07T10:40:51.804Z,32
2022-09-07T10:41:55.036Z,32
2022-09-07T10:43:28.470Z,33
2022-09-07T10:44:32.431Z,38
2022-09-07T10:45:35.492Z,38
2022-09-07T10:47:08.885Z,39
2022-09-07T10:48:12.337Z,43
2022-09-07T10:50:25.900Z,49
2022-09-07T10:52:32.476Z,53
2022-09-07T10:53:45.718Z,58
2022-09-07T10:54:50.834Z,66
2022-09-07T10:55:53.745Z,72
2022-09-07T10:56:56.823Z,78
2022-09-07T10:57:59.408Z,90
2022-09-07T10:59:06.627Z,98
2022-09-07T11:00:13.076Z,102
2022-09-07T11:01:17.003Z,105
2022-09-07T11:02:20.117Z,114
2022-09-07T11:03:30.857Z,126
2022-09-07T11:04:34.616Z,129
2022-09-07T11:05:40.838Z,124
2022-09-07T11:07:47.390Z,105
2022-09-07T11:09:22.279Z,97
2022-09-07T11:10:25.636Z,89
2022-09-07T11:12:05.489Z,90
2022-09-07T11:13:08.713Z,104
2022-09-07T11:14:16.239Z,132
2022-09-07T11:16:53.606Z,153
2022-09-07T11:19:39.371Z,149
2022-09-07T11:22:01.105Z,147
2022-09-07T11:24:07.039Z,154
2022-09-07T11:25:40.124Z,155
2022-09-07T11:26:43.406Z,157
2022-09-07T11:27:46.034Z,138
2022-09-07T11:29:31.297Z,130
2022-09-07T11:30:36.748Z,134
2022-09-07T11:32:43.398Z,124
2022-09-07T11:34:26.925Z,120
2022-09-07T11:35:30.003Z,116
2022-09-07T11:37:36.838Z,112
2022-09-07T11:38:40.001Z,119
2022-09-07T11:40:46.168Z,128
2022-09-07T11:42:52.287Z,128
2022-09-07T11:43:55.795Z,133
2022-09-07T11:46:03.826Z,157
2022-09-07T11:48:10.286Z,334
2022-09-07T11:49:13.725Z,594
2022-09-07T11:50:17.178Z,390
2022-09-07T11:51:20.612Z,526
2022-09-07T11:53:27.301Z,463
2022-09-07T11:54:30.381Z,414
2022-09-07T11:56:39.450Z,596
2022-09-07T11:57:42.818Z,814
2022-09-07T11:59:48.490Z,558
2022-09-07T12:00:51.731Z,571
2022-09-07T12:03:02.695Z,655
2022-09-07T12:04:06.669Z,602
2022-09-07T12:05:09.780Z,1087
2022-09-07T12:06:12.773Z,1034
2022-09-07T12:08:18.982Z,995
2022-09-07T12:09:22.641Z,979
2022-09-07T12:11:28.854Z,989
2022-09-07T12:13:35.393Z,979
2022-09-07T12:14:38.520Z,880
2022-09-07T12:16:45.692Z,836
2022-09-07T12:17:49.552Z,988
2022-09-07T12:19:54.375Z,931
2022-09-07T12:22:01.374Z,935
2022-09-07T12:23:07.797Z,934
2022-09-07T12:25:13.712Z,981
2022-09-07T12:27:18.750Z,968
2022-09-07T12:28:24.291Z,748
2022-09-07T12:29:27.466Z,602
2022-09-07T12:30:30.922Z,390
2022-09-07T12:32:58.838Z,362
2022-09-07T12:34:02.520Z,296
2022-09-07T12:35:05.301Z,296
2022-09-07T12:36:07.907Z,298
2022-09-07T12:38:17.323Z,461
2022-09-07T12:40:24.130Z,356
2022-09-07T12:41:26.921Z,314
2022-09-07T12:42:39.891Z,341
2022-09-07T12:43:42.487Z,669
2022-09-07T12:45:48.848Z,815
2022-09-07T12:46:52.035Z,474
2022-09-07T12:48:58.152Z,449
2022-09-07T12:50:02.427Z,617
2022-09-07T12:51:05.864Z,679
2022-09-07T12:52:17.924Z,464
2022-09-07T12:54:23.837Z,490
2022-09-07T12:55:33.742Z,477
2022-09-07T12:56:37.231Z,358
2022-09-07T12:57:40.604Z,381
2022-09-07T12:58:43.809Z,342
2022-09-07T13:00:50.018Z,399
2022-09-07T13:02:58.926Z,582
2022-09-07T13:04:02.883Z,612
2022-09-07T13:06:12.115Z,419
2022-09-07T13:08:19.112Z,289
2022-09-07T13:09:22.485Z,314
2022-09-07T13:11:28.728Z,394
2022-09-07T13:13:01.429Z,346
2022-09-07T13:14:15.742Z,314
2022-09-07T13:15:26.284Z,311
2022-09-07T13:16:31.697Z,305
2022-09-07T13:17:35.352Z,312
2022-09-07T13:19:43.619Z,291
2022-09-07T13:21:51.031Z,281
2022-09-07T13:22:54.536Z,292
2022-09-07T13:25:02.620Z,252
2022-09-07T13:27:09.416Z,245
2022-09-07T13:28:12.841Z,253
2022-09-07T13:30:19.182Z,212
2022-09-07T13:31:24.209Z,211
2022-09-07T13:33:10.623Z,209
2022-09-07T13:34:13.734Z,208
2022-09-07T13:36:21.153Z,215
2022-09-07T13:38:27.027Z,242
2022-09-07T13:39:31.047Z,237
2022-09-07T13:41:37.636Z,244
2022-09-07T13:43:43.027Z,326
2022-09-07T13:44:46.104Z,267
2022-09-07T13:46:53.959Z,270
2022-09-07T13:49:00.664Z,281
2022-09-07T13:50:03.835Z,329
2022-09-07T13:52:11.199Z,249
2022-09-07T13:54:18.157Z,234
2022-09-07T13:55:28.000Z,234
2022-09-07T13:56:31.093Z,233
2022-09-07T13:57:34.432Z,236
2022-09-07T13:59:40.463Z,217
2022-09-07T14:00:43.532Z,223
2022-09-07T14:02:58.352Z,271
2022-09-07T14:05:05.142Z,280
2022-09-07T14:06:08.601Z,213
2022-09-07T14:07:12.374Z,242
2022-09-07T14:08:16.420Z,310
2022-09-07T14:09:19.493Z,285
2022-09-07T14:11:25.536Z,256
2022-09-07T14:13:32.870Z,411
2022-09-07T14:15:39.113Z,432
2022-09-07T14:16:42.564Z,436
2022-09-07T14:18:48.548Z,469
2022-09-07T14:20:54.850Z,421
2022-09-07T14:21:58.031Z,416
2022-09-07T14:24:04.962Z,403
2022-09-07T14:26:20.461Z,365
2022-09-07T14:27:23.854Z,370
2022-09-07T14:28:27.248Z,413
2022-09-07T14:29:30.055Z,399
2022-09-07T14:31:37.156Z,430
2022-09-07T14:32:40.500Z,440
2022-09-07T14:33:48.682Z,397
2022-09-07T14:34:51.943Z,295
2022-09-07T14:36:58.826Z,205
2022-09-07T14:38:03.832Z,229
2022-09-07T14:40:11.268Z,167
2022-09-07T14:42:17.600Z,160
2022-09-07T14:43:20.743Z,150
2022-09-07T14:45:26.560Z,148
2022-09-07T14:47:32.434Z,146
2022-09-07T14:48:41.397Z,169
2022-09-07T14:49:45.884Z,189
2022-09-07T14:51:32.634Z,208
2022-09-07T14:53:37.154Z,180
2022-09-07T14:55:43.856Z,156
2022-09-07T14:57:49.648Z,150
2022-09-07T14:58:52.361Z,150
2022-09-07T15:01:43.670Z,151
2022-09-07T15:03:50.668Z,157
2022-09-07T15:06:02.899Z,152
2022-09-07T15:07:06.393Z,149
2022-09-07T15:09:12.753Z,144
2022-09-07T15:10:16.384Z,141
2022-09-07T15:11:35.735Z,136
2022-09-07T15:12:41.117Z,134
2022-09-07T15:14:49.389Z,135
2022-09-07T15:15:52.735Z,135
2022-09-07T15:17:46.161Z,132
2022-09-07T15:18:49.391Z,129
2022-09-07T15:19:53.150Z,125
2022-09-07T15:20:56.773Z,124
2022-09-07T15:23:02.174Z,121
2022-09-07T15:24:04.694Z,122
2022-09-07T15:25:07.970Z,123
2022-09-07T15:27:05.295Z,116
2022-09-07T15:28:08.926Z,113
2022-09-07T15:29:13.394Z,114
2022-09-07T15:30:19.673Z,113
2022-09-07T15:32:09.207Z,110
2022-09-07T15:33:13.339Z,109
2022-09-07T15:34:17.891Z,110
2022-09-07T15:36:24.302Z,105
2022-09-07T15:39:03.227Z,103
2022-09-07T15:40:07.351Z,99
2022-09-07T15:41:28.979Z,97
2022-09-07T15:43:24.163Z,98
2022-09-07T15:45:34.061Z,96
2022-09-07T15:46:41.847Z,93
2022-09-07T15:47:54.798Z,89
2022-09-07T15:48:58.518Z,87
2022-09-07T15:52:07.617Z,88
2022-09-07T15:54:15.815Z,84
2022-09-07T15:55:19.771Z,79
2022-09-07T15:56:23.195Z,79
2022-09-07T15:58:13.633Z,81
2022-09-07T15:59:17.857Z,81
2022-09-07T16:01:57.514Z,80
2022-09-07T16:03:12.384Z,74
2022-09-07T16:04:16.645Z,69
2022-09-07T16:06:23.837Z,70
2022-09-07T16:08:32.629Z,70
2022-09-07T16:09:39.591Z,68
2022-09-07T16:11:45.190Z,64
2022-09-07T16:13:18.293Z,64
2022-09-07T16:14:22.264Z,62
2022-09-07T16:15:29.072Z,61
2022-09-07T16:17:53.590Z,60
2022-09-07T16:19:02.350Z,55
2022-09-07T16:20:05.900Z,52
2022-09-07T16:23:18.637Z,48
2022-09-07T16:24:21.133Z,46
2022-09-07T16:25:23.998Z,46
2022-09-07T16:27:35.748Z,45
2022-09-07T16:28:40.469Z,45
2022-09-07T16:29:44.628Z,44
2022-09-07T16:30:49.045Z,44
2022-09-07T16:32:52.251Z,43
2022-09-07T16:35:00.194Z,43
2022-09-07T16:36:03.346Z,42
2022-09-07T16:37:06.619Z,42
2022-09-07T16:38:47.181Z,41
2022-09-07T16:40:54.682Z,39
2022-09-07T16:43:01.643Z,37
2022-09-07T16:46:08.797Z,36
2022-09-07T16:48:14.793Z,35
2022-09-07T16:50:21.119Z,34
2022-09-07T16:52:26.901Z,34
2022-09-07T16:53:29.676Z,33
2022-09-07T16:55:37.716Z,32
2022-09-07T16:58:43.993Z,31
2022-09-07T16:59:47.654Z,30
2022-09-07T17:00:51.506Z,29
2022-09-07T17:02:58.300Z,27
2022-09-07T17:04:02.664Z,26
2022-09-07T17:05:06.965Z,25
2022-09-07T17:06:09.858Z,24
2022-09-07T17:08:15.801Z,23
2022-09-07T17:10:22.036Z,21
2022-09-07T17:11:24.083Z,20
2022-09-07T17:13:30.723Z,19
2022-09-07T17:15:37.229Z,18
2022-09-07T17:17:45.283Z,17
2022-09-07T17:19:35.173Z,16
2022-09-07T17:20:38.369Z,14
2022-09-07T17:21:41.165Z,14
2022-09-07T17:23:57.883Z,12
2022-09-07T17:26:04.951Z,11
2022-09-07T17:28:10.925Z,10
2022-09-07T17:29:15.631Z,9
2022-09-07T17:30:24.646Z,9
2022-09-07T17:32:28.171Z,8
2022-09-07T17:33:32.142Z,7
2022-09-07T17:35:39.369Z,6
2022-09-07T17:36:43.736Z,6
2022-09-07T17:39:21.831Z,5
2022-09-07T17:40:26.273Z,5
2022-09-07T17:41:29.911Z,4
2022-09-07T17:44:03.597Z,4
2022-09-07T17:45:06.726Z,3
2022-09-07T17:46:10.304Z,3
2022-09-07T17:48:16.420Z,2
2022-09-07T17:49:20.486Z,2
2022-09-07T17:51:27.445Z,2
2022-09-07T17:53:36.085Z,1
2022-09-07T17:55:42.538Z,1
2022-09-07T17:56:45.145Z,1
2022-09-07T17:57:48.021Z,1
2022-09-07T17:58:52.969Z,0
2022-09-07T18:00:13.899Z,0
2022-09-07T18:01:17.015Z,0
2022-09-07T18:02:20.673Z,0
2022-09-07T18:03:24.065Z,0
2022-09-07T18:04:30.671Z,0
2022-09-07T18:06:37.684Z,0
2022-09-07T18:08:43.507Z,0
2022-09-07T18:09:46.165Z,0
2022-09-07T18:11:51.574Z,0
2022-09-07T18:13:58.351Z,0
2022-09-07T18:16:04.997Z,0
2022-09-07T18:17:07.727Z,0
2022-09-07T18:19:14.169Z,0
2022-09-07T18:21:23.040Z,0
2022-09-07T18:23:29.024Z,0
2022-09-07T18:24:32.402Z,0
2022-09-07T18:26:38.356Z,0
2022-09-07T18:29:35.443Z,0
2022-09-07T18:31:41.892Z,0
2022-09-07T18:33:49.800Z,0
2022-09-07T18:35:57.623Z,0
2022-09-07T18:37:02.216Z,0
2022-09-07T18:38:05.174Z,0
2022-09-07T18:39:08.518Z,0
2022-09-07T18:41:14.858Z,0
2022-09-07T18:42:18.288Z,0
2022-09-07T18:43:21.641Z,0
2022-09-07T18:45:31.371Z,0
2022-09-07T18:46:36.659Z,0
2022-09-07T18:47:41.266Z,0
2022-09-07T18:49:48.189Z,0
2022-09-07T18:53:17.558Z,0
2022-09-07T18:54:20.849Z,0
2022-09-07T18:56:28.134Z,0
2022-09-07T18:57:31.065Z,0
2022-09-07T18:59:38.787Z,0
2022-09-07T19:01:46.316Z,0
2022-09-07T19:03:52.761Z,0
2022-09-07T19:05:55.678Z,0
2022-09-07T19:06:59.605Z,0
2022-09-07T19:09:06.169Z,0
2022-09-07T19:10:09.515Z,0
2022-09-07T19:12:16.031Z,0
2022-09-07T19:14:22.322Z,0
2022-09-07T19:16:28.970Z,0
2022-09-07T19:17:32.693Z,0
2022-09-07T19:19:38.931Z,0
2022-09-07T19:21:45.056Z,0
2022-09-07T19:23:52.421Z,0
2022-09-07T19:24:55.600Z,0
2022-09-07T19:25:58.710Z,0
2022-09-07T19:27:03.053Z,0
2022-09-07T19:29:09.096Z,0
2022-09-07T19:30:12.586Z,0
2022-09-07T19:31:15.251Z,0
2022-09-07T19:32:18.753Z,0
2022-09-07T19:34:24.748Z,0
2022-09-07T19:35:28.038Z,0
2022-09-07T19:36:31.212Z,0
2022-09-07T19:37:33.881Z,0
2022-09-07T19:39:42.394Z,0
2022-09-07T19:40:45.030Z,0
2022-09-07T19:42:53.058Z,0
2022-09-07T19:44:58.824Z,0
2022-09-07T19:47:04.857Z,0
2022-09-07T19:48:08.489Z,0
2022-09-07T19:50:14.518Z,0
2022-09-07T19:52:20.091Z,0
2022-09-07T19:54:27.739Z,0
2022-09-07T19:55:32.068Z,0
2022-09-07T19:57:39.957Z,0
2022-09-07T19:59:47.002Z,0
2022-09-07T20:01:55.343Z,0
2022-09-07T20:02:59.000Z,0
2022-09-07T20:04:03.357Z,0
2022-09-07T20:05:06.381Z,0
2022-09-07T20:07:12.904Z,0
2022-09-07T20:08:15.915Z,0
2022-09-07T20:09:19.045Z,0
2022-09-07T20:10:22.519Z,0
2022-09-07T20:12:28.503Z,0
2022-09-07T20:13:31.821Z,0
2022-09-07T20:14:35.152Z,0
2022-09-07T20:15:38.874Z,0
2022-09-07T20:17:46.010Z,0
2022-09-07T20:19:51.791Z,0
2022-09-07T20:20:55.139Z,0
2022-09-07T20:23:00.806Z,0
2022-09-07T20:25:14.809Z,0
2022-09-07T20:27:21.126Z,0
2022-09-07T20:28:24.503Z,0
2022-09-07T20:30:35.436Z,0
2022-09-07T20:32:42.317Z,0
2022-09-07T20:34:48.300Z,0
2022-09-07T20:35:50.732Z,0
2022-09-07T20:37:56.340Z,0
2022-09-07T20:40:02.175Z,0
2022-09-07T20:41:05.687Z,0
2022-09-07T20:43:12.957Z,0
2022-09-07T20:45:19.035Z,0
2022-09-07T20:47:25.910Z,0
2022-09-07T20:48:28.624Z,0
2022-09-07T20:50:35.182Z,0
2022-09-07T20:52:41.515Z,0
2022-09-07T20:53:45.245Z,0
2022-09-07T20:54:48.962Z,0
2022-09-07T20:55:52.410Z,0
2022-09-07T20:58:00.164Z,0
2022-09-07T21:00:06.190Z,0
2022-09-07T21:01:10.150Z,0
2022-09-07T21:03:16.557Z,0
2022-09-07T21:05:22.159Z,0
2022-09-07T21:06:25.257Z,0
2022-09-07T21:07:28.991Z,0
2022-09-07T21:08:32.335Z,0
2022-09-07T21:10:38.355Z,0
2022-09-07T21:12:48.487Z,0
2022-09-07T21:13:52.534Z,0
2022-09-07T21:15:59.275Z,0
2022-09-07T21:18:05.131Z,0
2022-09-07T21:20:11.764Z,0
2022-09-07T21:21:22.363Z,0
2022-09-07T21:23:28.076Z,0
2022-09-07T21:25:33.756Z,0
2022-09-07T21:27:40.854Z,0
2022-09-07T21:28:43.779Z,0
2022-09-07T21:30:51.254Z,0
2022-09-07T21:33:05.186Z,0
2022-09-07T21:35:11.496Z,0
2022-09-07T21:36:14.676Z,0
2022-09-07T21:38:21.418Z,0
2022-09-07T21:40:26.979Z,0
2022-09-07T21:42:33.389Z,0
2022-09-07T21:43:35.879Z,0
2022-09-07T21:45:42.180Z,0
2022-09-07T21:47:49.422Z,0
2022-09-07T21:49:55.020Z,0
2022-09-07T21:50:58.729Z,0
2022-09-07T21:53:04.906Z,0
2022-09-07T21:55:10.945Z,0
2022-09-07T21:57:17.171Z,0
2022-09-07T21:58:20.243Z,0
2022-09-07T22:00:26.788Z,0
2022-09-07T22:02:34.048Z,0
2022-09-07T22:03:37.529Z,0
2022-09-07T22:04:40.916Z,0
2022-09-07T22:05:43.995Z,0
2022-09-07T22:07:50.395Z,0
2022-09-07T22:08:53.185Z,0
2022-09-07T22:09:56.555Z,0
2022-09-07T22:10:59.913Z,0
2022-09-07T22:13:05.379Z,0
2022-09-07T22:14:08.168Z,0
2022-09-07T22:15:11.305Z,0
2022-09-07T22:16:15.255Z,0
2022-09-07T22:18:22.066Z,0
2022-09-07T22:19:24.877Z,0
2022-09-07T22:20:28.215Z,0
2022-09-07T22:21:31.117Z,0
2022-09-07T22:23:36.605Z,0
2022-09-07T22:24:39.203Z,0
2022-09-07T22:25:41.726Z,0
2022-09-07T22:26:45.023Z,0
2022-09-07T22:28:51.151Z,0
2022-09-07T22:29:53.955Z,0
2022-09-07T22:30:58.035Z,0
2022-09-07T22:32:00.983Z,0
2022-09-07T22:34:08.410Z,0
2022-09-07T22:35:11.416Z,0
2022-09-07T22:36:14.586Z,0
2022-09-07T22:37:17.716Z,0
2022-09-07T22:39:23.504Z,0
2022-09-07T22:40:26.601Z,0
2022-09-07T22:41:29.589Z,0
2022-09-07T22:42:33.016Z,0
2022-09-07T22:44:55.291Z,0
2022-09-07T22:47:02.811Z,0
2022-09-07T22:48:05.949Z,0
2022-09-07T22:49:09.974Z,0
2022-09-07T22:50:13.621Z,0
2022-09-07T22:52:19.942Z,0
2022-09-07T22:53:23.006Z,0
2022-09-07T22:55:28.287Z,0
2022-09-07T22:57:34.547Z,0
2022-09-07T22:59:40.829Z,0
2022-09-07T23:00:44.230Z,0
2022-09-07T23:03:04.495Z,0
2022-09-07T23:05:13.126Z,0
2022-09-07T23:07:20.684Z,0
2022-09-07T23:09:26.156Z,0
2022-09-07T23:10:28.879Z,0
2022-09-07T23:12:34.266Z,0
2022-09-07T23:14:40.610Z,0
2022-09-07T23:16:47.450Z,0
2022-09-07T23:17:50.247Z,0
2022-09-07T23:19:56.459Z,0
2022-09-07T23:22:05.784Z,0
2022-09-07T23:24:11.453Z,0
2022-09-07T23:25:14.506Z,0
2022-09-07T23:26:17.074Z,0
2022-09-07T23:27:20.416Z,0
2022-09-07T23:29:25.801Z,0
2022-09-07T23:30:28.291Z,0
2022-09-07T23:32:34.681Z,0
2022-09-07T23:34:54.651Z,0
2022-09-07T23:35:58.530Z,0
2022-09-07T23:37:01.997Z,0